Time;durP1;ratioP1;P1;durP2;ratioP2;P2;SDS_P1;SDS_P2;PMS_P1;PMS_P2;Temp;Humidity;BMP_temperature;BMP_pressure;BME280_temperature;BME280_humidity;BME280_pressure;Samples;Min_cycle;Max_cycle;Signal;HPM_P1;HPM_P2
2022/05/22 00:00:31;;;;;;;3.22;0.90;;;11.00;99.90;;;;;;4970373;28;20501;-80
2022/05/22 00:02:57;;;;;;;3.40;1.55;;;10.90;99.90;;;;;;4956709;28;20042;-80
2022/05/22 00:05:24;;;;;;;4.78;1.92;;;10.90;99.90;;;;;;4969809;28;20129;-80
2022/05/22 00:07:49;;;;;;;3.67;1.30;;;10.90;99.90;;;;;;4968416;28;20042;-79
2022/05/22 00:10:16;;;;;;;4.75;1.25;;;10.80;99.90;;;;;;4950139;28;20049;-80
2022/05/22 00:12:42;;;;;;;3.45;1.95;;;10.80;99.90;;;;;;4966065;28;20046;-79
2022/05/22 00:15:09;;;;;;;5.30;1.85;;;10.70;99.90;;;;;;4962313;28;20111;-79
2022/05/22 00:17:35;;;;;;;5.85;2.08;;;10.70;99.90;;;;;;4947438;28;20046;-79
2022/05/22 00:20:01;;;;;;;4.13;1.67;;;10.70;99.90;;;;;;4967638;28;20061;-82
2022/05/22 00:22:26;;;;;;;4.78;1.60;;;10.70;99.90;;;;;;4968657;28;20030;-80
2022/05/22 00:24:52;;;;;;;6.20;1.90;;;10.60;99.90;;;;;;4962258;28;20034;-79
2022/05/22 00:27:18;;;;;;;2.58;0.90;;;10.60;99.90;;;;;;4949117;28;20050;-79
2022/05/22 00:29:44;;;;;;;6.93;1.52;;;10.60;99.90;;;;;;4965871;28;20137;-80
2022/05/22 00:32:09;;;;;;;2.63;1.30;;;10.60;99.90;;;;;;4962520;28;20154;-80
2022/05/22 00:34:36;;;;;;;4.55;1.35;;;10.50;99.90;;;;;;4968081;28;20085;-79
2022/05/22 00:37:02;;;;;;;2.10;1.17;;;10.50;99.90;;;;;;4969514;28;20050;-79
2022/05/22 00:39:27;;;;;;;2.85;0.85;;;10.50;99.90;;;;;;4965484;28;21265;-80
2022/05/22 00:41:55;;;;;;;4.80;1.77;;;10.50;99.90;;;;;;4965492;28;20042;-82
2022/05/22 00:44:21;;;;;;;4.07;1.45;;;10.40;99.90;;;;;;4965241;28;20112;-80
2022/05/22 00:46:48;;;;;;;3.05;0.90;;;10.40;99.90;;;;;;4968512;28;20046;-79
2022/05/22 00:49:21;;;;;;;2.67;0.90;;;10.40;99.90;;;;;;4954762;28;20043;-79
2022/05/22 00:52:07;;;;;;;2.60;1.27;;;10.30;99.90;;;;;;4980622;28;20997;-81
2022/05/22 00:54:36;;;;;;;;;;;10.30;99.90;;;;;;4964871;28;20058;-79
2022/05/22 00:57:04;;;;;;;1.98;0.90;;;10.20;99.90;;;;;;4965915;28;19921;-81
2022/05/22 00:59:38;;;;;;;3.33;1.10;;;10.20;99.90;;;;;;4969187;28;20129;-79
2022/05/22 01:02:04;;;;;;;3.22;1.10;;;10.20;99.90;;;;;;4950091;28;20489;-80
2022/05/22 01:04:32;;;;;;;3.45;1.48;;;10.20;99.90;;;;;;4952552;28;20133;-80
2022/05/22 01:06:58;;;;;;;5.25;1.90;;;10.20;99.90;;;;;;4966181;28;20034;-80
2022/05/22 01:09:23;;;;;;;7.28;2.20;;;10.20;99.90;;;;;;4968324;28;20082;-82
2022/05/22 01:11:53;;;;;;;4.95;2.47;;;10.20;99.90;;;;;;4964722;28;20141;-82
2022/05/22 01:14:22;;;;;;;7.75;2.63;;;10.20;99.90;;;;;;4965681;28;20057;-82
2022/05/22 01:16:50;;;;;;;5.43;2.30;;;10.20;99.90;;;;;;4960617;28;20117;-80
2022/05/22 01:19:21;;;;;;;6.70;2.63;;;10.20;99.90;;;;;;4966132;28;20143;-80
2022/05/22 01:22:07;;;;;;;6.10;2.55;;;10.20;99.90;;;;;;4982193;28;20050;-80
2022/05/22 01:24:32;;;;;;;7.32;1.92;;;10.20;99.90;;;;;;4968411;28;20043;-79
2022/05/22 01:27:02;;;;;;;4.43;1.65;;;10.20;99.90;;;;;;4964511;28;20042;-81
2022/05/22 01:29:27;;;;;;;5.22;1.73;;;10.20;99.90;;;;;;4962064;28;20027;-80
2022/05/22 01:31:53;;;;;;;2.83;1.25;;;10.20;99.90;;;;;;4961511;28;20042;-82
2022/05/22 01:34:18;;;;;;;2.85;0.73;;;10.20;99.90;;;;;;4963099;28;22110;-80
2022/05/22 01:36:44;;;;;;;2.63;1.08;;;10.10;99.90;;;;;;4966535;28;20398;-80
2022/05/22 01:39:10;;;;;;;3.42;1.20;;;10.10;99.90;;;;;;4962492;28;20121;-80
2022/05/22 01:41:35;;;;;;;3.67;1.00;;;10.10;99.90;;;;;;4965409;28;20386;-80
2022/05/22 01:44:01;;;;;;;4.45;0.77;;;10.10;99.90;;;;;;4964642;28;20049;-80
2022/05/22 01:46:27;;;;;;;5.47;1.13;;;10.10;99.90;;;;;;4967707;28;20057;-80
2022/05/22 01:48:52;;;;;;;3.90;1.17;;;10.10;99.90;;;;;;4954677;28;20765;-79
2022/05/22 01:51:18;;;;;;;2.20;1.05;;;10.40;99.90;;;;;;4965407;28;20410;-80
2022/05/22 01:53:43;;;;;;;2.28;1.40;;;10.10;99.90;;;;;;4962475;28;20069;-80
2022/05/22 01:56:09;;;;;;;6.07;1.67;;;10.10;99.90;;;;;;4965126;28;20386;-80
2022/05/22 01:58:35;;;;;;;5.78;1.55;;;10.00;99.90;;;;;;4948445;28;20070;-82
2022/05/22 02:01:01;;;;;;;2.75;1.48;;;10.00;99.90;;;;;;4961747;28;20053;-81
2022/05/22 02:03:27;;;;;;;4.78;1.65;;;10.00;99.90;;;;;;4969991;28;20054;-82
2022/05/22 02:05:52;;;;;;;7.30;2.50;;;10.00;99.90;;;;;;4964403;28;20646;-80
2022/05/22 02:08:24;;;;;;;6.70;1.98;;;10.00;99.90;;;;;;4967395;28;20038;-80
2022/05/22 02:11:01;;;;;;;6.60;1.65;;;9.90;99.90;;;;;;4968127;28;20054;-80
2022/05/22 02:13:31;;;;;;;3.17;1.30;;;9.90;99.90;;;;;;4960827;28;20130;-80
2022/05/22 02:15:56;;;;;;;3.55;1.40;;;9.80;99.90;;;;;;4964782;28;20493;-81
2022/05/22 02:18:22;;;;;;;3.05;1.70;;;9.90;99.90;;;;;;4967992;28;20038;-80
2022/05/22 02:20:48;;;;;;;6.32;2.00;;;9.90;99.90;;;;;;4965908;28;20053;-80
2022/05/22 02:23:15;;;;;;;7.72;3.92;;;9.80;99.90;;;;;;4947556;28;20053;-80
2022/05/22 02:25:44;;;;;;;8.30;2.67;;;9.80;99.90;;;;;;4964509;28;20043;-80
2022/05/22 02:28:12;;;;;;;6.15;2.10;;;9.90;99.90;;;;;;4966574;28;20034;-82
2022/05/22 02:30:39;;;;;;;4.47;2.35;;;9.80;99.90;;;;;;4980527;28;20042;-82
2022/05/22 02:33:05;;;;;;;5.68;1.90;;;9.80;99.90;;;;;;4966113;28;20038;-82
2022/05/22 02:35:31;;;;;;;33.42;2.35;;;9.80;99.90;;;;;;4966324;28;20485;-80
2022/05/22 02:37:58;;;;;;;4.13;1.70;;;9.70;99.90;;;;;;4966572;28;20043;-79
2022/05/22 02:40:26;;;;;;;4.43;1.38;;;9.70;99.90;;;;;;4963983;28;20049;-82
2022/05/22 02:42:53;;;;;;;3.55;1.60;;;9.60;99.90;;;;;;4964966;28;20050;-79
2022/05/22 02:45:22;;;;;;;3.90;1.77;;;9.60;99.90;;;;;;4983370;28;20702;-80
2022/05/22 02:47:48;;;;;;;3.65;1.05;;;9.60;99.90;;;;;;4967984;28;20520;-80
2022/05/22 02:50:17;;;;;;;1.70;1.00;;;9.60;99.90;;;;;;4967735;28;20787;-81
2022/05/22 02:52:43;;;;;;;1.77;0.90;;;9.50;99.90;;;;;;4963660;28;20050;-79
2022/05/22 02:55:09;;;;;;;2.75;1.08;;;9.50;99.90;;;;;;4965945;28;20445;-79
2022/05/22 02:57:37;;;;;;;4.53;1.42;;;9.50;99.90;;;;;;4966199;28;20038;-80
2022/05/22 03:00:07;;;;;;;2.17;0.82;;;9.50;99.90;;;;;;4961145;28;20042;-80
2022/05/22 03:02:33;;;;;;;5.53;1.70;;;9.60;99.90;;;;;;4969159;28;20056;-80
2022/05/22 03:04:59;;;;;;;5.88;1.30;;;9.40;99.90;;;;;;4968093;28;20054;-80
2022/05/22 03:07:24;;;;;;;6.50;0.50;;;9.40;99.90;;;;;;4963801;28;20534;-80
2022/05/22 03:09:50;;;;;;;1.88;0.70;;;9.40;99.90;;;;;;4945577;28;20046;-80
2022/05/22 03:12:18;;;;;;;1.35;0.50;;;9.40;99.90;;;;;;4965772;28;20057;-81
2022/05/22 03:14:54;;;;;;;2.45;0.90;;;9.30;99.90;;;;;;4944526;28;20096;-81
2022/05/22 03:17:20;;;;;;;2.00;1.08;;;9.40;99.90;;;;;;4968334;28;20049;-80
2022/05/22 03:19:46;;;;;;;2.88;1.30;;;9.30;99.90;;;;;;4972457;28;20784;-80
2022/05/22 03:22:12;;;;;;;1.50;0.80;;;9.30;99.90;;;;;;4971051;28;20042;-80
2022/05/22 03:24:38;;;;;;;3.97;1.30;;;9.30;99.90;;;;;;4964795;28;20056;-80
2022/05/22 03:27:07;;;;;;;4.75;1.20;;;9.30;99.90;;;;;;4979487;28;20076;-80
2022/05/22 03:29:33;;;;;;;2.13;0.85;;;9.20;99.90;;;;;;4955887;28;20046;-80
2022/05/22 03:31:58;;;;;;;2.45;0.95;;;9.20;99.90;;;;;;4971110;28;20444;-81
2022/05/22 03:34:24;;;;;;;1.75;0.80;;;9.30;99.90;;;;;;4971817;28;20063;-80
2022/05/22 03:36:53;;;;;;;1.60;0.43;;;9.20;99.90;;;;;;4974705;28;20069;-80
2022/05/22 03:39:19;;;;;;;1.38;0.70;;;9.20;99.90;;;;;;4958154;28;20042;-79
2022/05/22 03:41:45;;;;;;;1.27;0.40;;;9.20;99.90;;;;;;4996320;28;20128;-80
2022/05/22 03:44:11;;;;;;;3.08;0.80;;;9.20;99.90;;;;;;4997618;28;20029;-81
2022/05/22 03:46:37;;;;;;;0.55;0.52;;;9.20;99.90;;;;;;5000480;28;20030;-82
2022/05/22 03:49:14;;;;;;;3.03;0.73;;;9.20;99.90;;;;;;4996428;28;20120;-79
2022/05/22 03:51:42;;;;;;;3.42;0.50;;;9.20;99.90;;;;;;4976726;28;20057;-79
2022/05/22 03:54:10;;;;;;;4.38;0.88;;;9.20;99.90;;;;;;4980265;28;20070;-80
2022/05/22 03:56:38;;;;;;;3.72;1.02;;;9.20;99.90;;;;;;4974874;28;20057;-79
2022/05/22 03:59:04;;;;;;;4.65;1.20;;;9.20;99.90;;;;;;4973039;28;20497;-79
2022/05/22 04:01:36;;;;;;;1.55;1.05;;;9.30;99.90;;;;;;4972971;28;20065;-79
2022/05/22 04:04:02;;;;;;;1.58;0.70;;;9.30;99.90;;;;;;4991829;28;20053;-80
2022/05/22 04:06:27;;;;;;;1.45;0.90;;;9.50;99.90;;;;;;4972615;28;20129;-80
2022/05/22 04:08:53;;;;;;;2.10;1.40;;;9.40;99.90;;;;;;4971744;28;20097;-80
2022/05/22 04:11:19;;;;;;;3.33;1.73;;;9.40;99.90;;;;;;4953961;28;20042;-80
2022/05/22 04:13:49;;;;;;;2.78;0.80;;;9.50;99.90;;;;;;4992507;28;20046;-79
2022/05/22 04:16:14;;;;;;;1.33;0.60;;;9.70;99.90;;;;;;4972841;28;20754;-80
2022/05/22 04:18:41;;;;;;;1.90;0.50;;;9.80;99.90;;;;;;4990925;28;20046;-80
2022/05/22 04:21:08;;;;;;;1.08;0.52;;;9.90;99.90;;;;;;4988162;28;20053;-80
2022/05/22 04:26:18;;;;;;;4.60;1.65;;;10.20;99.90;;;;;;4968937;28;20058;-80
2022/05/22 04:28:44;;;;;;;2.97;2.45;;;10.40;99.90;;;;;;4957851;28;20046;-80
2022/05/22 04:31:09;;;;;;;8.40;3.10;;;10.50;99.90;;;;;;4972387;28;20058;-80
2022/05/22 04:33:35;;;;;;;4.35;2.83;;;10.60;99.90;;;;;;4971935;28;20046;-80
2022/05/22 04:36:01;;;;;;;6.63;2.92;;;10.70;99.90;;;;;;4972715;28;20045;-80
2022/05/22 04:38:27;;;;;;;6.63;2.85;;;10.70;99.90;;;;;;4974643;28;20497;-80
2022/05/22 04:41:02;;;;;;;6.82;3.30;;;10.80;99.90;;;;;;4973914;28;20121;-81
2022/05/22 04:43:29;;;;;;;9.95;2.95;;;10.80;99.90;;;;;;4965237;28;20091;-80
2022/05/22 04:45:55;;;;;;;8.43;3.00;;;10.90;99.90;;;;;;4968316;28;20043;-81
2022/05/22 04:48:22;;;;;;;5.68;3.30;;;10.90;99.90;;;;;;4968080;28;20050;-80
2022/05/22 04:50:49;;;;;;;6.13;3.03;;;11.00;99.90;;;;;;4953552;28;20050;-79
2022/05/22 04:53:17;;;;;;;5.40;3.25;;;11.10;99.90;;;;;;4964016;28;20105;-80
2022/05/22 04:55:43;;;;;;;11.80;3.70;;;11.10;99.90;;;;;;4965459;28;20042;-81
2022/05/22 04:58:09;;;;;;;6.57;2.40;;;11.20;99.90;;;;;;4968217;28;20045;-80
2022/05/22 05:00:35;;;;;;;6.63;3.17;;;11.30;99.90;;;;;;4951904;28;20049;-79
2022/05/22 05:03:01;;;;;;;7.20;3.22;;;11.40;99.90;;;;;;4966803;28;20405;-81
2022/05/22 05:05:28;;;;;;;12.10;3.33;;;11.50;99.90;;;;;;4964630;28;20043;-82
2022/05/22 05:07:53;;;;;;;9.27;3.13;;;11.70;99.90;;;;;;4978246;28;20038;-81
2022/05/22 05:10:19;;;;;;;8.23;2.90;;;12.20;99.90;;;;;;4966596;28;20428;-79
2022/05/22 05:12:45;;;;;;;12.82;2.65;;;12.90;99.90;;;;;;4951642;28;20050;-79
2022/05/22 05:15:14;;;;;;;10.43;2.40;;;13.80;99.90;;;;;;4965713;28;20467;-81
2022/05/22 05:17:42;;;;;;;4.50;2.25;;;14.70;99.90;;;;;;4955220;28;20617;-81
2022/05/22 05:20:09;;;;;;;6.13;2.63;;;15.70;99.90;;;;;;4968393;28;20034;-81
2022/05/22 05:22:35;;;;;;;5.10;1.88;;;16.50;99.90;;;;;;4949978;28;20781;-81
2022/05/22 05:25:01;;;;;;;5.32;2.13;;;17.00;99.90;;;;;;4962534;28;20105;-80
2022/05/22 05:27:27;;;;;;;11.07;2.47;;;17.40;99.90;;;;;;4962261;28;20102;-80
2022/05/22 05:29:52;;;;;;;8.13;2.63;;;17.50;99.90;;;;;;4966706;28;20525;-80
2022/05/22 05:32:19;;;;;;;8.90;2.65;;;17.30;99.90;;;;;;4952095;28;20050;-83
2022/05/22 05:34:44;;;;;;;7.13;2.42;;;17.30;99.90;;;;;;4983371;28;20056;-80
2022/05/22 05:37:10;;;;;;;9.13;2.60;;;17.20;99.90;;;;;;4968466;28;20128;-81
2022/05/22 05:39:36;;;;;;;6.20;2.25;;;17.20;99.90;;;;;;4965524;28;20051;-80
2022/05/22 05:42:02;;;;;;;8.13;2.67;;;17.10;99.90;;;;;;4965474;28;20057;-81
2022/05/22 05:44:28;;;;;;;9.88;2.50;;;17.20;99.90;;;;;;4969283;28;20452;-81
2022/05/22 05:46:54;;;;;;;12.65;3.15;;;17.30;99.90;;;;;;4964520;28;20054;-81
2022/05/22 05:49:20;;;;;;;8.57;3.13;;;17.40;99.90;;;;;;4963183;28;21599;-80
2022/05/22 05:51:46;;;;;;;9.65;2.63;;;17.50;99.90;;;;;;4961813;28;20048;-80
2022/05/22 05:54:12;;;;;;;9.43;2.80;;;17.60;99.90;;;;;;4963579;28;20472;-80
2022/05/22 05:56:39;;;;;;;10.13;2.90;;;17.70;99.90;;;;;;4943799;28;20053;-80
2022/05/22 05:59:05;;;;;;;8.35;2.88;;;17.80;99.90;;;;;;4980305;28;20812;-79
2022/05/22 06:01:30;;;;;;;14.85;3.47;;;17.90;99.90;;;;;;4961499;28;20050;-79
2022/05/22 06:03:56;;;;;;;9.55;2.75;;;18.00;99.90;;;;;;4959387;28;20075;-80
2022/05/22 06:06:22;;;;;;;11.75;3.20;;;17.90;99.90;;;;;;4954898;28;20428;-80
2022/05/22 06:08:48;;;;;;;8.80;2.58;;;17.90;99.90;;;;;;4960688;28;20811;-79
2022/05/22 06:11:14;;;;;;;12.73;2.92;;;17.90;99.90;;;;;;4960074;28;20057;-80
2022/05/22 06:13:40;;;;;;;12.98;3.72;;;18.00;99.90;;;;;;4959080;28;20042;-80
2022/05/22 06:16:07;;;;;;;11.55;3.00;;;17.90;99.90;;;;;;4977334;28;20064;-79
2022/05/22 06:18:33;;;;;;;10.15;2.65;;;17.90;99.90;;;;;;4979659;28;20430;-79
2022/05/22 06:21:06;;;;;;;12.00;3.28;;;18.10;99.90;;;;;;4968225;28;20085;-81
2022/05/22 06:23:32;;;;;;;9.57;2.70;;;18.20;99.90;;;;;;4966492;28;20057;-79
2022/05/22 06:25:57;;;;;;;5.80;1.85;;;18.40;99.90;;;;;;4949828;28;20413;-82
2022/05/22 06:28:23;;;;;;;9.07;2.95;;;18.40;99.90;;;;;;4967264;28;20544;-83
2022/05/22 06:30:48;;;;;;;7.97;2.47;;;18.50;99.90;;;;;;4972683;28;20043;-80
2022/05/22 06:33:17;;;;;;;10.38;2.50;;;18.50;99.90;;;;;;4968149;28;20057;-82
2022/05/22 06:35:46;;;;;;;9.38;2.88;;;18.50;99.90;;;;;;4970179;28;20144;-79
2022/05/22 06:39:49;;;;;;;9.80;3.35;;;18.60;99.90;;;;;;4967000;28;20513;-79
2022/05/22 06:40:57;;;;;;;13.32;2.60;;;18.70;99.90;;;;;;4966143;28;20397;-80
2022/05/22 06:43:23;;;;;;;14.07;2.90;;;18.80;99.90;;;;;;4949720;28;20046;-82
2022/05/22 06:45:50;;;;;;;7.35;2.47;;;18.90;99.90;;;;;;4952949;28;20072;-81
2022/05/22 06:48:16;;;;;;;10.82;1.95;;;19.10;99.90;;;;;;4986694;28;20406;-82
2022/05/22 06:50:42;;;;;;;10.18;1.92;;;19.10;99.90;;;;;;4990017;28;20053;-80
2022/05/22 06:53:08;;;;;;;9.65;2.60;;;19.10;99.90;;;;;;4988479;28;20050;-80
2022/05/22 06:55:33;;;;;;;10.52;2.00;;;19.20;99.90;;;;;;4972328;28;20046;-80
2022/05/22 06:57:59;;;;;;;10.07;2.45;;;19.40;99.90;;;;;;4966742;28;20634;-80
2022/05/22 07:00:24;;;;;;;13.10;3.45;;;19.60;99.90;;;;;;4964770;28;20053;-82
2022/05/22 07:02:52;;;;;;;9.93;2.63;;;19.60;99.90;;;;;;4965453;28;20065;-80
2022/05/22 07:05:18;;;;;;;13.98;2.65;;;19.70;99.90;;;;;;4964274;28;20054;-81
2022/05/22 07:07:44;;;;;;;12.27;2.75;;;19.80;99.90;;;;;;4969107;28;20102;-81
2022/05/22 07:10:09;;;;;;;8.35;2.30;;;20.00;99.90;;;;;;4966278;28;20544;-80
2022/05/22 07:12:35;;;;;;;10.40;2.70;;;20.00;99.90;;;;;;4973099;28;20038;-81
2022/05/22 07:15:01;;;;;;;11.18;2.53;;;19.90;99.90;;;;;;4970817;28;20810;-85
2022/05/22 07:17:27;;;;;;;10.75;2.63;;;19.90;99.90;;;;;;4992019;28;20034;-84
2022/05/22 07:19:54;;;;;;;9.13;2.45;;;19.90;99.90;;;;;;4969471;28;20141;-82
2022/05/22 07:22:22;;;;;;;7.22;2.35;;;19.80;99.90;;;;;;4970657;28;21025;-82
2022/05/22 07:24:49;;;;;;;9.02;1.88;;;19.90;99.90;;;;;;4972807;28;20039;-83
2022/05/22 07:27:15;;;;;;;6.72;2.15;;;19.90;99.90;;;;;;4985486;28;20374;-81
2022/05/22 07:29:41;;;;;;;8.38;2.42;;;19.80;99.90;;;;;;4971846;28;20085;-81
2022/05/22 07:32:07;;;;;;;6.25;2.15;;;19.80;99.90;;;;;;4981976;28;20050;-80
2022/05/22 07:34:33;;;;;;;10.25;2.22;;;19.80;99.90;;;;;;4962185;28;20573;-82
2022/05/22 07:37:02;;;;;;;7.45;2.17;;;19.80;99.90;;;;;;4964284;28;20113;-82
2022/05/22 07:39:27;;;;;;;9.57;2.22;;;19.70;99.90;;;;;;4951704;28;20045;-79
2022/05/22 07:41:53;;;;;;;6.93;2.03;;;19.80;99.90;;;;;;4966080;28;20559;-81
2022/05/22 07:44:20;;;;;;;8.63;1.80;;;19.80;99.90;;;;;;4967344;28;20046;-79
2022/05/22 07:46:46;;;;;;;8.48;2.63;;;20.10;99.90;;;;;;4966428;28;20565;-80
2022/05/22 07:50:16;;;;;;;6.68;1.50;;;20.20;99.90;;;;;;4968367;28;20117;-82
2022/05/22 07:52:06;;;;;;;6.43;1.60;;;20.10;99.90;;;;;;4958548;28;20748;-81
2022/05/22 07:54:38;;;;;;;5.93;1.25;;;20.30;99.90;;;;;;4964156;28;20433;-80
2022/05/22 07:57:04;;;;;;;6.63;1.67;;;20.20;97.60;;;;;;4963104;28;20035;-81
2022/05/22 07:59:34;;;;;;;9.93;1.20;;;20.30;97.10;;;;;;4950137;28;20058;-80
2022/05/22 08:02:00;;;;;;;6.28;1.45;;;20.10;99.90;;;;;;4973578;28;20050;-81
2022/05/22 08:04:26;;;;;;;6.80;1.38;;;20.20;99.90;;;;;;4961074;28;20042;-80
2022/05/22 08:06:51;;;;;;;4.63;1.38;;;20.30;99.10;;;;;;4965243;28;20070;-82
2022/05/22 08:09:17;;;;;;;10.88;1.80;;;20.20;99.10;;;;;;4959640;28;20110;-83
2022/05/22 08:11:43;;;;;;;12.43;1.88;;;20.30;99.30;;;;;;4990628;28;20046;-79
2022/05/22 08:14:08;;;;;;;7.03;1.65;;;20.20;99.40;;;;;;4993989;28;20051;-81
2022/05/22 08:16:34;;;;;;;8.48;2.25;;;20.10;97.70;;;;;;4989590;28;20058;-80
2022/05/22 08:19:01;;;;;;;14.70;3.10;;;18.70;99.90;;;;;;4994043;28;20485;-80
2022/05/22 08:21:26;;;;;;;11.57;2.42;;;17.10;99.90;;;;;;4973036;28;20223;-82
2022/05/22 08:24:01;;;;;;;13.07;2.50;;;17.60;99.90;;;;;;4972299;28;20548;-86
2022/05/22 08:26:29;;;;;;;16.70;2.83;;;17.90;99.90;;;;;;4949499;28;20042;-79
2022/05/22 08:28:55;;;;;;;11.82;3.10;;;15.90;99.90;;;;;;4982088;28;20041;-82
2022/05/22 08:31:21;;;;;;;12.48;3.03;;;17.80;99.90;;;;;;4966002;28;20046;-80
2022/05/22 08:33:47;;;;;;;12.15;2.40;;;17.00;99.90;;;;;;4966382;28;20041;-79
2022/05/22 11:09:53;;;;;;;;;;;18.80;99.90;;;;;;5113245;27;20477;-62
2022/05/22 11:12:25;;;;;;;0.10;0.10;;;19.10;99.90;;;;;;5088226;27;20074;-63
